createdAt,value
2022-08-24T00:01:28.288Z,16.23
2022-08-24T00:03:59.840Z,19.58
2022-08-24T00:06:28.734Z,12.85
2022-08-24T00:08:58.332Z,15.70
2022-08-24T00:11:26.556Z,16.70
2022-08-24T00:13:54.944Z,15.93
2022-08-24T00:16:22.832Z,14.43
2022-08-24T00:18:50.448Z,15.30
2022-08-24T00:21:19.119Z,20.52
2022-08-24T00:23:49.656Z,21.67
2022-08-24T00:26:17.229Z,15.77
2022-08-24T00:28:48.620Z,23.02
2022-08-24T00:31:15.990Z,18.48
2022-08-24T00:33:43.650Z,21.55
2022-08-24T00:36:11.641Z,15.85
2022-08-24T00:38:39.677Z,18.50
2022-08-24T00:41:07.087Z,19.92
2022-08-24T00:43:35.300Z,22.80
2022-08-24T00:46:05.290Z,15.02
2022-08-24T00:48:34.469Z,18.10
2022-08-24T00:51:14.720Z,17.48
2022-08-24T00:53:56.003Z,14.18
2022-08-24T00:56:30.329Z,19.40
2022-08-24T00:59:01.163Z,15.80
2022-08-24T01:01:29.673Z,16.67
2022-08-24T01:03:57.798Z,14.73
2022-08-24T01:06:25.484Z,15.52
2022-08-24T01:08:56.258Z,14.30
2022-08-24T01:11:30.884Z,19.20
2022-08-24T01:14:04.193Z,12.70
2022-08-24T01:16:50.496Z,20.52
2022-08-24T01:19:39.983Z,21.55
2022-08-24T01:22:44.589Z,19.17
2022-08-24T01:25:12.395Z,13.77
2022-08-24T01:27:40.029Z,13.57
2022-08-24T01:30:11.861Z,16.55
2022-08-24T01:32:40.542Z,14.82
2022-08-24T01:35:09.275Z,17.92
2022-08-24T01:37:40.261Z,16.58
2022-08-24T01:40:11.591Z,16.30
2022-08-24T01:42:39.265Z,18.05
2022-08-24T01:45:07.336Z,16.27
2022-08-24T01:47:36.053Z,16.77
2022-08-24T01:50:04.981Z,16.20
2022-08-24T01:53:01.515Z,13.60
2022-08-24T01:55:22.666Z,13.75
2022-08-24T01:57:50.565Z,13.65
2022-08-24T02:00:18.439Z,14.18
2022-08-24T02:02:46.516Z,14.32
2022-08-24T02:05:15.549Z,19.52
2022-08-24T02:07:46.102Z,18.38
2022-08-24T02:10:15.095Z,17.98
2022-08-24T02:12:44.869Z,13.43
2022-08-24T02:15:12.995Z,17.33
2022-08-24T02:17:41.019Z,14.18
2022-08-24T02:20:09.231Z,17.20
2022-08-24T02:22:37.019Z,11.65
2022-08-24T02:25:06.086Z,18.98
2022-08-24T02:27:35.724Z,16.73
2022-08-24T02:30:03.769Z,18.25
2022-08-24T02:32:31.653Z,14.25
2022-08-24T02:34:59.145Z,15.82
2022-08-24T02:37:26.774Z,12.50
2022-08-24T02:39:55.159Z,19.85
2022-08-24T02:42:25.107Z,16.48
2022-08-24T02:44:53.810Z,18.48
2022-08-24T02:47:22.670Z,18.73
2022-08-24T02:50:07.931Z,17.45
2022-08-24T02:52:42.185Z,19.00
2022-08-24T02:55:13.350Z,17.67
2022-08-24T02:57:41.476Z,12.48
2022-08-24T03:00:12.289Z,15.98
2022-08-24T03:02:47.526Z,21.05
2022-08-24T03:05:15.564Z,13.30
2022-08-24T03:07:43.689Z,15.80
2022-08-24T03:10:12.030Z,20.45
2022-08-24T03:12:40.496Z,22.35
2022-08-24T03:15:10.762Z,15.88
2022-08-24T03:17:39.862Z,18.08
2022-08-24T03:20:12.032Z,16.50
2022-08-24T03:22:41.061Z,22.55
2022-08-24T03:25:09.170Z,18.05
2022-08-24T03:27:37.208Z,19.85
2022-08-24T03:30:05.749Z,18.80
2022-08-24T03:32:33.040Z,17.83
2022-08-24T03:35:02.495Z,13.95
2022-08-24T03:37:30.285Z,15.18
2022-08-24T03:39:57.934Z,23.40
2022-08-24T03:42:26.156Z,16.13
2022-08-24T03:44:53.575Z,15.38
2022-08-24T03:47:23.024Z,18.85
2022-08-24T03:49:51.439Z,19.60
2022-08-24T03:52:19.093Z,19.08
2022-08-24T03:54:49.537Z,17.90
2022-08-24T03:57:16.899Z,13.85
2022-08-24T03:59:46.674Z,15.07
2022-08-24T04:02:15.511Z,22.25
2022-08-24T04:04:43.177Z,21.52
2022-08-24T04:07:12.299Z,21.88
2022-08-24T04:09:40.080Z,16.45
2022-08-24T04:12:07.579Z,16.90
2022-08-24T04:14:35.488Z,17.27
2022-08-24T04:17:12.680Z,20.92
2022-08-24T04:19:58.024Z,18.13
2022-08-24T04:22:31.338Z,18.65
2022-08-24T04:24:58.914Z,19.58
2022-08-24T04:27:28.562Z,19.85
2022-08-24T04:29:57.035Z,19.08
2022-08-24T04:32:26.684Z,14.95
2022-08-24T04:34:56.521Z,17.35
2022-08-24T04:37:28.027Z,20.05
2022-08-24T04:39:57.953Z,29.80
2022-08-24T04:42:33.671Z,19.45
2022-08-24T04:45:01.724Z,17.13
2022-08-24T04:47:29.514Z,25.05
2022-08-24T04:49:56.904Z,17.17
2022-08-24T04:52:25.250Z,15.82
2022-08-24T04:54:53.049Z,18.92
2022-08-24T04:57:23.996Z,16.38
2022-08-24T04:59:56.739Z,17.42
2022-08-24T05:02:24.512Z,17.35
2022-08-24T05:04:57.333Z,17.48
2022-08-24T05:07:26.033Z,20.48
2022-08-24T05:09:53.437Z,20.73
2022-08-24T05:12:21.575Z,16.15
2022-08-24T05:14:58.899Z,18.48
2022-08-24T05:17:27.463Z,17.98
2022-08-24T05:19:54.923Z,15.63
2022-08-24T05:22:22.153Z,14.43
2022-08-24T05:24:54.408Z,22.00
2022-08-24T05:27:25.126Z,12.38
2022-08-24T05:29:56.564Z,17.17
2022-08-24T05:32:24.524Z,15.30
2022-08-24T05:34:53.694Z,16.30
2022-08-24T05:37:21.001Z,17.08
2022-08-24T05:40:11.436Z,20.63
2022-08-24T05:42:41.469Z,18.00
2022-08-24T05:45:10.920Z,17.60
2022-08-24T05:47:39.004Z,17.08
2022-08-24T05:50:19.480Z,16.92
2022-08-24T05:52:46.794Z,14.18
2022-08-24T05:55:14.441Z,15.98
2022-08-24T05:57:43.495Z,18.08
2022-08-24T06:00:16.763Z,28.42
2022-08-24T06:02:46.436Z,18.85
2022-08-24T06:05:14.884Z,13.98
2022-08-24T06:07:42.764Z,19.30
2022-08-24T06:10:35.250Z,20.35
2022-08-24T06:12:59.425Z,14.98
2022-08-24T06:15:27.313Z,12.30
2022-08-24T06:17:54.918Z,16.25
2022-08-24T06:20:22.751Z,13.98
2022-08-24T06:22:51.039Z,15.88
2022-08-24T06:25:37.995Z,19.30
2022-08-24T06:28:05.938Z,21.13
2022-08-24T06:30:35.007Z,16.25
2022-08-24T06:33:21.434Z,24.67
2022-08-24T06:35:52.240Z,23.33
2022-08-24T06:38:20.596Z,21.48
2022-08-24T06:40:51.384Z,16.83
2022-08-24T06:43:21.065Z,27.98
2022-08-24T06:45:55.287Z,16.92
2022-08-24T06:48:30.568Z,17.80
2022-08-24T06:50:59.574Z,18.58
2022-08-24T06:53:27.883Z,19.40
2022-08-24T06:55:59.400Z,25.40
2022-08-24T06:58:29.030Z,31.42
2022-08-24T07:00:57.714Z,20.88
2022-08-24T07:03:25.867Z,25.75
2022-08-24T07:06:05.238Z,27.17
2022-08-24T07:08:38.319Z,22.40
2022-08-24T07:11:06.618Z,24.02
2022-08-24T07:13:34.476Z,20.85
2022-08-24T07:16:02.502Z,26.27
2022-08-24T07:18:33.583Z,20.25
2022-08-24T07:21:04.996Z,22.90
2022-08-24T07:23:42.086Z,19.13
2022-08-24T07:29:05.063Z,19.27
2022-08-24T07:31:42.919Z,24.55
2022-08-24T07:34:31.312Z,21.02
2022-08-24T07:37:00.638Z,30.80
2022-08-24T07:39:29.023Z,20.58
2022-08-24T07:42:16.076Z,38.03
2022-08-24T07:44:45.952Z,24.10
2022-08-24T07:47:38.851Z,26.05
2022-08-24T07:50:03.915Z,22.63
2022-08-24T07:52:32.443Z,29.13
2022-08-24T07:54:59.727Z,25.33
2022-08-24T07:57:29.465Z,24.45
2022-08-24T07:59:59.535Z,27.23
2022-08-24T08:02:29.976Z,25.45
2022-08-24T08:05:02.725Z,32.95
2022-08-24T08:07:31.759Z,26.88
2022-08-24T08:10:02.092Z,30.95
2022-08-24T08:12:31.164Z,27.95
2022-08-24T08:14:59.029Z,30.08
2022-08-24T08:17:27.207Z,31.08
2022-08-24T08:19:55.162Z,29.17
2022-08-24T08:22:42.690Z,43.13
2022-08-24T08:25:31.874Z,28.85
2022-08-24T08:28:08.033Z,52.17
2022-08-24T08:30:47.170Z,39.80
2022-08-24T08:33:15.447Z,23.50
2022-08-24T08:35:44.460Z,28.27
2022-08-24T08:38:12.766Z,24.67
2022-08-24T08:40:46.404Z,26.85
2022-08-24T08:43:40.007Z,26.52
2022-08-24T08:46:16.981Z,31.67
2022-08-24T08:49:07.876Z,28.75
2022-08-24T08:51:57.114Z,29.23
2022-08-24T08:54:31.451Z,22.75
2022-08-24T08:57:20.655Z,34.20
2022-08-24T08:59:58.314Z,34.55
2022-08-24T09:02:48.036Z,33.10
2022-08-24T09:05:47.474Z,23.73
2022-08-24T09:08:41.833Z,26.80
2022-08-24T09:11:41.772Z,32.05
2022-08-24T09:14:12.256Z,30.17
2022-08-24T09:17:02.579Z,32.83
2022-08-24T09:19:52.834Z,29.30
2022-08-24T09:22:21.266Z,23.60
2022-08-24T09:24:55.061Z,25.90
2022-08-24T09:28:01.693Z,31.13
2022-08-24T09:30:39.929Z,33.95
2022-08-24T09:33:18.409Z,29.67
2022-08-24T09:36:05.983Z,27.65
2022-08-24T09:38:52.399Z,33.45
2022-08-24T09:41:41.523Z,44.60
2022-08-24T09:44:34.041Z,38.67
2022-08-24T09:47:28.185Z,25.95
2022-08-24T09:50:14.077Z,25.67
2022-08-24T09:52:52.281Z,40.78
2022-08-24T09:55:36.487Z,40.20
2022-08-24T09:58:41.269Z,42.78
2022-08-24T10:01:28.322Z,28.30
2022-08-24T10:04:24.257Z,30.05
2022-08-24T10:07:10.447Z,27.73
2022-08-24T10:09:56.785Z,42.85
2022-08-24T10:12:47.343Z,26.42
2022-08-24T10:15:21.534Z,30.45
2022-08-24T10:18:17.934Z,29.55
2022-08-24T10:21:25.656Z,35.35
2022-08-24T10:24:13.462Z,28.73
2022-08-24T10:26:51.144Z,32.97
2022-08-24T10:29:58.293Z,28.58
2022-08-24T10:32:47.801Z,38.85
2022-08-24T10:35:22.714Z,38.53
2022-08-24T10:38:46.275Z,30.70
2022-08-24T10:41:51.824Z,23.70
2022-08-24T10:44:43.827Z,35.22
2022-08-24T10:47:29.347Z,47.13
2022-08-24T10:50:02.796Z,38.20
2022-08-24T10:52:48.414Z,36.90
2022-08-24T10:55:42.506Z,38.90
2022-08-24T10:58:31.804Z,32.95
2022-08-24T11:01:27.621Z,35.25
2022-08-24T11:04:03.168Z,40.50
2022-08-24T11:06:37.100Z,37.17
2022-08-24T11:09:19.278Z,40.58
2022-08-24T11:11:49.981Z,31.05
2022-08-24T11:14:27.653Z,34.83
2022-08-24T11:17:15.239Z,42.20
2022-08-24T11:19:43.778Z,28.35
2022-08-24T11:22:31.724Z,42.65
2022-08-24T11:25:05.188Z,28.00
2022-08-24T11:27:38.504Z,36.05
2022-08-24T11:30:20.165Z,29.27
2022-08-24T11:32:58.655Z,34.38
2022-08-24T11:35:31.953Z,41.15
2022-08-24T11:38:32.442Z,37.40
2022-08-24T11:41:07.107Z,42.90
2022-08-24T11:43:41.258Z,41.10
2022-08-24T11:46:30.276Z,38.65
2022-08-24T11:49:32.752Z,45.70
2022-08-24T11:52:11.205Z,35.88
2022-08-24T11:54:51.199Z,43.72
2022-08-24T11:57:23.091Z,45.75
2022-08-24T12:00:13.814Z,47.80
2022-08-24T12:03:04.523Z,43.00
2022-08-24T12:06:17.268Z,38.35
2022-08-24T12:08:55.981Z,44.40
2022-08-24T12:11:31.601Z,46.65
2022-08-24T12:14:20.455Z,42.83
2022-08-24T12:17:01.278Z,50.35
2022-08-24T12:19:35.756Z,43.47
2022-08-24T12:22:06.290Z,41.58
2022-08-24T12:24:40.237Z,42.25
2022-08-24T12:27:21.648Z,41.95
2022-08-24T12:29:54.612Z,56.65
2022-08-24T12:32:25.938Z,59.67
2022-08-24T12:35:06.164Z,56.05
2022-08-24T12:37:47.213Z,52.10
2022-08-24T12:40:32.539Z,68.15
2022-08-24T12:43:45.905Z,77.88
2022-08-24T12:46:17.490Z,55.10
2022-08-24T12:49:12.871Z,58.70
2022-08-24T12:51:59.062Z,56.97
2022-08-24T12:54:29.119Z,67.20
2022-08-24T12:57:16.237Z,57.63
2022-08-24T12:59:47.900Z,56.83
2022-08-24T13:02:15.788Z,42.83
2022-08-24T13:04:57.069Z,62.10
2022-08-24T13:07:24.832Z,50.42
2022-08-24T13:09:58.318Z,56.33
2022-08-24T13:12:45.243Z,46.13
2022-08-24T13:15:28.363Z,66.53
2022-08-24T13:18:09.553Z,54.85
2022-08-24T13:20:37.223Z,64.22
2022-08-24T13:23:07.573Z,62.30
2022-08-24T13:25:58.791Z,58.78
2022-08-24T13:28:32.142Z,56.45
2022-08-24T13:31:06.797Z,58.20
2022-08-24T13:33:50.917Z,63.25
2022-08-24T13:36:36.995Z,53.00
2022-08-24T13:39:17.811Z,44.92
2022-08-24T13:41:49.599Z,62.83
2022-08-24T13:44:37.533Z,48.83
2022-08-24T13:47:28.326Z,61.92
2022-08-24T13:50:28.089Z,63.28
2022-08-24T13:53:34.085Z,64.65
2022-08-24T13:56:32.418Z,51.70
2022-08-24T13:59:16.733Z,56.83
2022-08-24T14:02:05.117Z,58.88
2022-08-24T14:04:47.615Z,57.58
2022-08-24T14:07:15.667Z,58.30
2022-08-24T14:10:14.460Z,54.90
2022-08-24T14:13:05.365Z,52.42
2022-08-24T14:16:14.105Z,69.40
2022-08-24T14:19:04.140Z,60.05
2022-08-24T14:21:47.597Z,65.32
2022-08-24T14:24:45.722Z,57.67
2022-08-24T14:27:35.440Z,60.47
2022-08-24T14:30:29.585Z,63.22
2022-08-24T14:33:00.199Z,79.50
2022-08-24T14:36:10.232Z,53.03
2022-08-24T14:38:54.644Z,64.85
2022-08-24T14:41:31.429Z,50.25
2022-08-24T14:44:36.878Z,59.45
2022-08-24T14:47:17.210Z,64.15
2022-08-24T14:49:45.243Z,54.58
2022-08-24T14:52:50.596Z,60.30
2022-08-24T14:55:56.927Z,73.60
2022-08-24T14:58:47.239Z,68.22
2022-08-24T15:01:56.702Z,69.80
2022-08-24T15:04:37.684Z,67.47
2022-08-24T15:07:27.274Z,57.95
2022-08-24T15:09:56.308Z,67.07
2022-08-24T15:12:37.365Z,70.40
2022-08-24T15:15:27.371Z,69.82
2022-08-24T15:17:58.391Z,55.92
2022-08-24T15:20:37.976Z,64.05
2022-08-24T15:23:11.853Z,61.47
2022-08-24T15:25:48.069Z,80.40
2022-08-24T15:28:25.891Z,67.35
2022-08-24T15:31:11.326Z,58.35
2022-08-24T15:33:57.909Z,60.78
2022-08-24T15:36:26.516Z,69.05
2022-08-24T15:38:54.618Z,67.97
2022-08-24T15:41:26.169Z,56.58
2022-08-24T15:43:57.156Z,73.82
2022-08-24T15:46:37.148Z,78.05
2022-08-24T15:49:28.987Z,81.85
2022-08-24T15:52:34.224Z,72.72
2022-08-24T15:55:04.509Z,71.95
2022-08-24T15:57:37.177Z,77.65
2022-08-24T16:00:15.309Z,59.78
2022-08-24T16:02:43.800Z,62.92
2022-08-24T16:05:24.470Z,70.28
2022-08-24T16:08:04.560Z,73.97
2022-08-24T16:10:41.472Z,63.47
2022-08-24T16:13:31.483Z,79.05
2022-08-24T16:16:11.156Z,68.47
2022-08-24T16:18:46.557Z,55.45
2022-08-24T16:21:33.962Z,85.28
2022-08-24T16:24:05.855Z,75.85
2022-08-24T16:26:53.370Z,58.08
2022-08-24T16:29:39.704Z,61.60
2022-08-24T16:32:21.538Z,74.10
2022-08-24T16:35:09.845Z,76.72
2022-08-24T16:37:39.467Z,68.10
2022-08-24T16:40:08.665Z,75.55
2022-08-24T16:42:37.005Z,61.90
2022-08-24T16:45:06.509Z,71.15
2022-08-24T16:47:34.107Z,68.13
2022-08-24T16:50:01.569Z,59.05
2022-08-24T16:52:29.691Z,77.53
2022-08-24T16:54:57.911Z,59.33
2022-08-24T16:57:31.605Z,63.28
2022-08-24T16:59:59.887Z,68.03
2022-08-24T17:02:27.399Z,53.42
2022-08-24T17:04:55.064Z,61.13
2022-08-24T17:07:25.615Z,63.45
2022-08-24T17:09:53.854Z,56.42
2022-08-24T17:12:21.557Z,61.35
2022-08-24T17:14:49.387Z,60.30
2022-08-24T17:17:21.353Z,62.15
2022-08-24T17:19:50.527Z,60.83
2022-08-24T17:22:18.443Z,75.32
2022-08-24T17:24:46.604Z,68.28
2022-08-24T17:27:14.938Z,67.47
2022-08-24T17:29:44.721Z,65.57
2022-08-24T17:32:13.306Z,54.88
2022-08-24T17:34:41.063Z,78.45
2022-08-24T17:37:09.831Z,59.90
2022-08-24T17:39:37.299Z,65.25
2022-08-24T17:42:13.745Z,59.83
2022-08-24T17:44:53.271Z,64.28
2022-08-24T17:47:20.991Z,89.05
2022-08-24T17:49:48.529Z,64.13
2022-08-24T17:52:16.318Z,69.10
2022-08-24T17:54:43.792Z,82.78
2022-08-24T17:57:12.802Z,94.00
2022-08-24T17:59:41.007Z,72.75
2022-08-24T18:02:13.118Z,67.47
2022-08-24T18:04:41.514Z,53.20
2022-08-24T18:07:12.608Z,78.72
2022-08-24T18:09:48.689Z,70.78
2022-08-24T18:12:18.543Z,64.90
2022-08-24T18:14:46.373Z,58.70
2022-08-24T18:17:21.090Z,62.80
2022-08-24T18:19:51.032Z,58.88
2022-08-24T18:22:18.495Z,63.30
2022-08-24T18:24:45.905Z,76.22
2022-08-24T18:27:22.426Z,62.30
2022-08-24T18:29:54.691Z,66.82
2022-08-24T18:37:24.531Z,61.45
2022-08-24T18:39:52.182Z,66.60
2022-08-24T18:42:19.668Z,70.18
2022-08-24T18:44:47.408Z,75.47
2022-08-24T18:47:15.779Z,63.15
2022-08-24T18:49:43.204Z,67.18
2022-08-24T18:52:13.777Z,57.72
2022-08-24T18:54:44.886Z,63.33
2022-08-24T18:57:12.709Z,59.85
2022-08-24T18:59:41.310Z,98.22
2022-08-24T19:02:31.429Z,106.50
2022-08-24T19:05:03.420Z,101.47
2022-08-24T19:07:32.758Z,74.18
2022-08-24T19:10:00.937Z,56.75
2022-08-24T19:12:31.498Z,71.22
2022-08-24T19:14:59.752Z,82.97
2022-08-24T19:17:29.038Z,76.15
2022-08-24T19:19:56.498Z,74.45
2022-08-24T19:22:25.303Z,73.18
2022-08-24T19:24:53.950Z,66.03
2022-08-24T19:27:21.649Z,63.35
2022-08-24T19:29:56.960Z,66.07
2022-08-24T19:32:27.201Z,71.65
2022-08-24T19:34:55.523Z,52.20
2022-08-24T19:37:23.552Z,59.75
2022-08-24T19:39:51.367Z,54.10
2022-08-24T19:42:19.254Z,52.45
2022-08-24T19:45:04.983Z,60.20
2022-08-24T19:47:34.765Z,61.13
2022-08-24T19:50:03.073Z,90.57
2022-08-24T19:52:32.742Z,44.05
2022-08-24T19:55:00.899Z,34.78
2022-08-24T19:57:34.051Z,44.13
2022-08-24T20:00:19.778Z,48.42
2022-08-24T20:02:48.872Z,49.42
2022-08-24T20:05:18.052Z,53.65
2022-08-24T20:07:46.647Z,41.17
2022-08-24T20:10:15.717Z,31.73
2022-08-24T20:12:43.726Z,41.75
2022-08-24T20:15:12.268Z,56.17
2022-08-24T20:17:39.783Z,44.08
2022-08-24T20:20:09.490Z,37.90
2022-08-24T20:22:37.499Z,41.40
2022-08-24T20:25:06.262Z,38.33
2022-08-24T20:27:34.184Z,49.15
2022-08-24T20:30:01.990Z,39.85
2022-08-24T20:32:29.789Z,40.35
2022-08-24T20:34:57.538Z,54.92
2022-08-24T20:37:27.755Z,51.45
2022-08-24T20:39:57.336Z,45.67
2022-08-24T20:42:28.028Z,43.08
2022-08-24T20:44:55.819Z,37.95
2022-08-24T20:47:23.745Z,45.78
2022-08-24T20:49:51.948Z,40.67
2022-08-24T20:52:19.381Z,47.50
2022-08-24T20:54:47.096Z,44.00
2022-08-24T20:57:18.334Z,36.67
2022-08-24T20:59:46.462Z,40.67
2022-08-24T21:02:14.262Z,36.58
2022-08-24T21:04:42.182Z,28.05
2022-08-24T21:07:11.868Z,30.52
2022-08-24T21:09:39.628Z,25.60
2022-08-24T21:12:08.346Z,28.38
2022-08-24T21:14:35.922Z,28.70
2022-08-24T21:17:05.808Z,35.20
2022-08-24T21:19:34.403Z,28.40
2022-08-24T21:22:02.002Z,26.50
2022-08-24T21:24:29.722Z,21.00
2022-08-24T21:26:58.742Z,26.23
2022-08-24T21:29:29.390Z,30.15
2022-08-24T21:32:15.485Z,25.90
2022-08-24T21:34:43.092Z,24.20
2022-08-24T21:37:13.124Z,21.80
2022-08-24T21:39:41.083Z,18.23
2022-08-24T21:42:09.815Z,19.55
2022-08-24T21:44:37.175Z,22.00
2022-08-24T21:47:06.733Z,24.58
2022-08-24T21:49:34.822Z,18.67
2022-08-24T21:52:02.527Z,19.65
2022-08-24T21:54:30.208Z,20.63
2022-08-24T21:56:58.474Z,22.55
2022-08-24T21:59:26.210Z,14.38
2022-08-24T22:01:53.760Z,18.65
2022-08-24T22:04:21.453Z,17.52
2022-08-24T22:06:50.123Z,14.50
2022-08-24T22:09:17.881Z,17.83
2022-08-24T22:11:45.824Z,23.13
2022-08-24T22:14:15.387Z,12.35
2022-08-24T22:16:45.065Z,19.65
2022-08-24T22:19:14.058Z,17.52
2022-08-24T22:21:47.874Z,14.05
2022-08-24T22:24:16.764Z,12.65
2022-08-24T22:26:44.288Z,12.32
2022-08-24T22:29:11.832Z,11.02
2022-08-24T22:31:42.210Z,13.63
2022-08-24T22:34:13.106Z,15.43
2022-08-24T22:36:47.419Z,14.88
2022-08-24T22:39:14.970Z,13.57
2022-08-24T22:41:42.481Z,17.85
2022-08-24T22:44:22.317Z,15.20
2022-08-24T22:46:55.784Z,11.82
2022-08-24T22:49:26.736Z,13.20
2022-08-24T22:51:54.342Z,13.68
2022-08-24T22:54:22.396Z,13.77
2022-08-24T22:56:52.654Z,14.77
2022-08-24T22:59:28.959Z,13.55
2022-08-24T23:01:58.047Z,13.65
2022-08-24T23:04:29.314Z,11.82
2022-08-24T23:06:57.109Z,15.18
2022-08-24T23:09:25.390Z,11.90
2022-08-24T23:11:52.809Z,15.05
2022-08-24T23:14:21.356Z,10.73
2022-08-24T23:16:50.069Z,12.20
2022-08-24T23:19:38.674Z,15.05
2022-08-24T23:22:08.319Z,17.63
2022-08-24T23:24:36.521Z,13.73
2022-08-24T23:27:05.177Z,12.07
2022-08-24T23:29:33.377Z,11.23
2022-08-24T23:32:01.756Z,11.93
2022-08-24T23:34:31.835Z,11.68
2022-08-24T23:36:59.856Z,17.30
2022-08-24T23:39:28.045Z,16.85
2022-08-24T23:41:55.785Z,17.58
2022-08-24T23:44:27.199Z,18.30
2022-08-24T23:46:55.497Z,15.60
2022-08-24T23:49:23.375Z,11.75
2022-08-24T23:51:52.534Z,14.18
2022-08-24T23:54:22.093Z,17.58
2022-08-24T23:56:50.623Z,13.27
2022-08-24T23:59:27.563Z,12.85
